LKRK weather

Rakovnik Airport
Rakovnik, Central Bohemian Region, Czechia

Public forecast

Using degrees Celsius for public forecast. Weather courtesy of forecast.io.

METAR (pilot weather report)

Closest report is Václav Havel Airport Prague, 22.0 nm (40.7 km) E. Retrieved 2019/04/22 23:30 UTC (4 minutes ago):

LKPR 222330Z 09013KT CAVOK 09/02 Q1011 NOSIG

TAF (pilot weather forecast)

Closest forecast is Václav Havel Airport Prague, 22.0 nm (40.7 km) E. Retrieved 2019/04/22 18:18 UTC (5 hours ago):

TAF LKPR 221700Z 2218/2400 09014KT CAVOK TEMPO 2218/2306 11016G30KT TEMPO 2306/2400 12016G32KT BECMG 2307/2309 9999 BKN042 PROB40 TEMPO 2310/2317 13022G42KT